Time;durP1;ratioP1;P1;durP2;ratioP2;P2;SDS_P1;SDS_P2;PMS_P1;PMS_P2;Temp;Humidity;BMP_temperature;BMP_pressure;BME280_temperature;BME280_humidity;BME280_pressure;Samples;Min_cycle;Max_cycle;Signal;HPM_P1;HPM_P2
2021/04/03 00:01:18;;;;;;;9.70;5.30;;;7.30;99.90;;;;;;5072186;28;20810;-49
2021/04/03 00:03:44;;;;;;;6.50;4.83;;;7.60;99.90;;;;;;5071537;28;20431;-49
2021/04/03 00:06:11;;;;;;;13.57;5.73;;;7.60;99.90;;;;;;5072071;28;20428;-49
2021/04/03 00:08:38;;;;;;;6.70;5.30;;;7.50;99.90;;;;;;5071869;28;20423;-49
2021/04/03 00:11:06;;;;;;;14.63;5.13;;;7.60;99.90;;;;;;5071896;28;20530;-49
2021/04/03 00:13:34;;;;;;;7.40;4.93;;;7.50;99.90;;;;;;5071381;28;20553;-49
2021/04/03 00:16:01;;;;;;;7.23;5.13;;;7.40;99.90;;;;;;5071766;28;20781;-49
2021/04/03 00:18:27;;;;;;;11.40;4.50;;;7.30;99.90;;;;;;5071688;28;20478;-48
2021/04/03 00:20:53;;;;;;;13.47;4.97;;;6.90;99.90;;;;;;5071485;28;20569;-49
2021/04/03 00:23:21;;;;;;;11.90;4.43;;;7.40;99.90;;;;;;5071101;28;20435;-49
2021/04/03 00:25:48;;;;;;;10.57;4.80;;;7.20;99.90;;;;;;5071804;28;20427;-49
2021/04/03 00:28:14;;;;;;;7.43;4.80;;;7.20;99.90;;;;;;5071609;28;21030;-49
2021/04/03 00:30:41;;;;;;;8.77;5.03;;;7.50;99.90;;;;;;5071289;28;20588;-49
2021/04/03 00:33:08;;;;;;;9.53;4.70;;;7.10;99.90;;;;;;5071060;28;20553;-49
2021/04/03 00:35:36;;;;;;;8.20;4.47;;;7.10;99.90;;;;;;5071475;28;20431;-49
2021/04/03 00:38:03;;;;;;;10.07;6.23;;;7.10;99.90;;;;;;5070036;28;20568;-49
2021/04/03 00:40:33;;;;;;;8.90;4.60;;;7.10;99.90;;;;;;5070216;28;20518;-49
2021/04/03 00:43:01;;;;;;;7.93;5.30;;;7.30;99.90;;;;;;5071161;28;20442;-49
2021/04/03 00:45:27;;;;;;;8.87;5.43;;;7.30;99.90;;;;;;5071516;28;20590;-48
2021/04/03 00:47:53;;;;;;;10.33;5.43;;;7.00;99.90;;;;;;5069779;28;20458;-49
2021/04/03 00:50:22;;;;;;;7.93;4.90;;;7.00;99.90;;;;;;5071192;28;20487;-49
2021/04/03 00:52:49;;;;;;;8.40;4.63;;;7.20;99.90;;;;;;5071235;28;20441;-49
2021/04/03 00:55:16;;;;;;;11.50;5.80;;;7.00;99.90;;;;;;5068973;28;20964;-50
2021/04/03 00:57:44;;;;;;;8.90;5.50;;;6.90;99.90;;;;;;5069278;28;20583;-49
2021/04/03 01:00:12;;;;;;;7.97;5.67;;;7.00;99.90;;;;;;5071366;28;20544;-50
2021/04/03 01:02:39;;;;;;;9.93;5.30;;;7.00;99.90;;;;;;5070429;28;20491;-48
2021/04/03 01:05:11;;;;;;;12.33;5.53;;;6.80;99.90;;;;;;5069733;28;20961;-46
2021/04/03 01:07:37;;;;;;;8.70;5.37;;;7.00;99.90;;;;;;5069458;28;20453;-48
2021/04/03 01:10:05;;;;;;;8.57;5.60;;;6.80;99.90;;;;;;5070965;28;20602;-48
2021/04/03 01:12:41;;;;;;;11.17;6.07;;;6.60;99.90;;;;;;5070474;28;20874;-48
2021/04/03 01:15:15;;;;;;;10.70;5.60;;;6.50;99.90;;;;;;5069360;28;20454;-48
2021/04/03 01:17:56;;;;;;;9.60;6.10;;;6.60;99.90;;;;;;5069554;28;20915;-48
2021/04/03 01:20:48;;;;;;;14.07;7.07;;;6.50;99.90;;;;;;5069284;28;20490;-48
2021/04/03 01:23:43;;;;;;;10.33;5.97;;;6.60;99.90;;;;;;5065818;28;20949;-48
2021/04/03 01:26:45;;;;;;;11.20;5.20;;;6.60;99.90;;;;;;5070800;28;20430;-48
2021/04/03 01:29:37;;;;;;;12.40;5.67;;;6.50;99.90;;;;;;5070785;28;20437;-48
2021/04/03 01:32:06;;;;;;;15.93;6.63;;;6.50;99.90;;;;;;5069528;28;20465;-47
2021/04/03 01:34:35;;;;;;;12.40;6.00;;;5.80;99.90;;;;;;5070278;28;20429;-48
2021/04/03 01:37:05;;;;;;;8.93;5.83;;;6.60;99.90;;;;;;5068988;28;20450;-48
2021/04/03 01:39:36;;;;;;;10.80;5.13;;;6.20;99.90;;;;;;5069088;28;20478;-48
2021/04/03 01:42:08;;;;;;;6.73;5.07;;;6.40;99.90;;;;;;5069079;28;20464;-48
2021/04/03 01:44:38;;;;;;;10.23;5.27;;;6.40;99.90;;;;;;5070111;28;20503;-47
2021/04/03 01:47:06;;;;;;;8.13;5.20;;;6.30;99.90;;;;;;5070577;28;20458;-48
2021/04/03 01:49:34;;;;;;;13.23;5.23;;;6.30;99.90;;;;;;5070503;28;20417;-48
2021/04/03 01:52:03;;;;;;;8.03;5.77;;;6.10;99.90;;;;;;5069226;28;20927;-48
2021/04/03 01:54:33;;;;;;;11.67;5.00;;;6.40;99.90;;;;;;5069925;28;20442;-48
2021/04/03 01:57:03;;;;;;;6.80;4.70;;;6.10;99.90;;;;;;5069103;28;20446;-48
2021/04/03 01:59:47;;;;;;;9.37;5.43;;;6.00;99.90;;;;;;5070585;28;20481;-48
2021/04/03 02:02:19;;;;;;;10.70;4.63;;;6.50;99.90;;;;;;5068952;28;20441;-48
2021/04/03 02:04:47;;;;;;;8.90;5.20;;;6.10;99.90;;;;;;5070506;28;20512;-47
2021/04/03 02:07:17;;;;;;;10.87;5.20;;;6.10;99.90;;;;;;5071644;28;20438;-49
2021/04/03 02:09:51;;;;;;;12.60;6.27;;;6.00;99.90;;;;;;5072923;28;20830;-48
2021/04/03 02:12:28;;;;;;;10.93;5.50;;;5.90;99.90;;;;;;5074030;28;20434;-48
2021/04/03 02:15:09;;;;;;;6.87;5.43;;;5.60;99.90;;;;;;5072678;28;20455;-48
2021/04/03 02:17:37;;;;;;;11.02;5.03;;;5.80;99.90;;;;;;5073755;28;20907;-48
2021/04/03 02:20:05;;;;;;;12.07;5.40;;;5.80;99.90;;;;;;5074295;28;20257;-48
2021/04/03 02:22:33;;;;;;;12.27;6.50;;;6.10;99.90;;;;;;5073830;28;20503;-48
2021/04/03 02:25:06;;;;;;;8.35;5.68;;;5.50;99.90;;;;;;5072621;28;20661;-47
2021/04/03 02:27:33;;;;;;;9.45;5.38;;;6.10;99.90;;;;;;5074009;28;20214;-48
2021/04/03 02:30:12;;;;;;;9.82;5.07;;;5.70;99.90;;;;;;5074374;28;20234;-48
2021/04/03 02:32:40;;;;;;;10.93;5.30;;;6.00;99.90;;;;;;5073732;28;20191;-48
2021/04/03 02:35:08;;;;;;;6.53;5.53;;;5.70;99.90;;;;;;5072660;28;20450;-48
2021/04/03 02:37:35;;;;;;;9.52;5.50;;;5.70;99.90;;;;;;5073434;28;20227;-48
2021/04/03 02:40:03;;;;;;;9.18;6.55;;;5.70;99.90;;;;;;5072515;28;20224;-48
2021/04/03 02:42:30;;;;;;;11.23;4.97;;;5.70;99.90;;;;;;5071578;28;20304;-48
2021/04/03 02:45:02;;;;;;;8.85;5.93;;;5.60;99.90;;;;;;5072134;28;20203;-48
2021/04/03 02:47:33;;;;;;;9.50;5.05;;;5.50;99.90;;;;;;5073555;28;20307;-48
2021/04/03 02:50:05;;;;;;;13.73;5.97;;;5.60;99.90;;;;;;5072492;28;20222;-48
2021/04/03 02:52:36;;;;;;;12.77;5.85;;;5.70;99.90;;;;;;5073772;28;20287;-48
2021/04/03 02:55:04;;;;;;;6.13;4.65;;;5.70;99.90;;;;;;5072197;28;20374;-48
2021/04/03 02:57:31;;;;;;;8.40;4.53;;;5.90;99.90;;;;;;5073457;28;20187;-48
2021/04/03 03:00:01;;;;;;;10.00;5.05;;;5.80;99.90;;;;;;5071615;28;20264;-49
2021/04/03 03:02:27;;;;;;;9.68;5.22;;;6.00;99.90;;;;;;5072689;28;20704;-48
2021/04/03 03:04:58;;;;;;;9.07;4.88;;;5.50;99.90;;;;;;5071803;28;20210;-49
2021/04/03 03:07:27;;;;;;;9.18;5.40;;;5.80;99.90;;;;;;5072977;28;20694;-49
2021/04/03 03:09:57;;;;;;;12.40;5.75;;;5.80;99.90;;;;;;5071732;28;20219;-48
2021/04/03 03:12:24;;;;;;;12.93;5.60;;;5.70;99.90;;;;;;5071159;28;20268;-49
2021/04/03 03:14:54;;;;;;;9.82;5.82;;;5.40;99.90;;;;;;5071529;28;20207;-49
2021/04/03 03:17:23;;;;;;;8.05;5.20;;;5.80;99.90;;;;;;5071016;28;20301;-49
2021/04/03 03:19:56;;;;;;;9.23;5.03;;;5.50;99.90;;;;;;5071273;28;20235;-49
2021/04/03 03:22:23;;;;;;;9.55;5.22;;;5.50;99.90;;;;;;5072453;28;20188;-49
2021/04/03 03:24:51;;;;;;;8.68;5.60;;;5.40;99.90;;;;;;5073023;28;20203;-50
2021/04/03 03:27:18;;;;;;;9.15;6.00;;;5.50;99.90;;;;;;5072746;28;20191;-49
2021/04/03 03:29:46;;;;;;;9.95;5.32;;;5.30;99.90;;;;;;5071459;28;20216;-49
2021/04/03 03:32:14;;;;;;;11.30;5.85;;;5.40;99.90;;;;;;5072445;28;20211;-49
2021/04/03 03:34:49;;;;;;;9.55;5.40;;;5.10;99.90;;;;;;5071104;28;20198;-49
2021/04/03 03:37:16;;;;;;;12.85;5.72;;;4.70;99.90;;;;;;5071223;28;20615;-49
2021/04/03 03:39:48;;;;;;;7.97;5.20;;;5.30;99.90;;;;;;5072349;28;20250;-48
2021/04/03 03:42:19;;;;;;;11.35;5.78;;;5.10;99.90;;;;;;5072396;28;20211;-49
2021/04/03 03:44:46;;;;;;;11.82;5.97;;;5.40;99.90;;;;;;5072187;28;20210;-49
2021/04/03 03:47:14;;;;;;;10.02;5.50;;;5.20;99.90;;;;;;5070734;28;20743;-49
2021/04/03 03:49:43;;;;;;;9.52;5.13;;;5.20;99.90;;;;;;5070777;28;20223;-49
2021/04/03 03:52:11;;;;;;;12.80;5.90;;;5.30;99.90;;;;;;5070883;28;20199;-49
2021/04/03 03:54:40;;;;;;;9.07;5.82;;;5.10;99.90;;;;;;5070807;28;20211;-49
2021/04/03 03:57:07;;;;;;;8.68;5.82;;;5.20;99.90;;;;;;5072050;28;20261;-49
2021/04/03 03:59:35;;;;;;;11.68;6.20;;;5.00;99.90;;;;;;5070513;28;20243;-49
2021/04/03 04:02:02;;;;;;;12.60;6.03;;;5.00;99.90;;;;;;5070436;28;20606;-49
2021/04/03 04:04:29;;;;;;;10.30;5.55;;;5.10;99.90;;;;;;5070342;28;20203;-50
2021/04/03 04:07:00;;;;;;;7.35;5.13;;;5.00;99.90;;;;;;5070515;28;20265;-49
2021/04/03 04:09:27;;;;;;;12.90;5.75;;;5.10;99.90;;;;;;5071927;28;20213;-49
2021/04/03 04:11:56;;;;;;;11.43;6.22;;;5.20;99.90;;;;;;5070543;28;20210;-48
2021/04/03 04:14:24;;;;;;;9.82;5.53;;;5.10;99.90;;;;;;5071587;28;20240;-49
2021/04/03 04:17:00;;;;;;;11.27;5.47;;;5.00;99.90;;;;;;5070659;28;20222;-49
2021/04/03 04:19:32;;;;;;;9.50;6.57;;;4.80;99.90;;;;;;5070331;28;20234;-49
2021/04/03 04:22:02;;;;;;;12.10;6.55;;;5.20;99.90;;;;;;5070462;28;20230;-49
2021/04/03 04:24:29;;;;;;;12.23;5.70;;;5.10;99.90;;;;;;5069875;28;20215;-49
2021/04/03 04:26:56;;;;;;;10.27;5.90;;;5.20;99.90;;;;;;5069740;28;20672;-49
2021/04/03 04:29:22;;;;;;;7.75;5.07;;;5.00;99.90;;;;;;5069163;28;20667;-49
2021/04/03 04:31:52;;;;;;;10.70;6.32;;;4.50;99.90;;;;;;5070063;28;20576;-49
2021/04/03 04:34:22;;;;;;;12.23;6.18;;;4.80;99.90;;;;;;5069608;28;20676;-49
2021/04/03 04:36:53;;;;;;;11.38;6.30;;;5.10;99.90;;;;;;5070029;28;20232;-49
2021/04/03 04:39:26;;;;;;;9.02;5.15;;;5.00;99.90;;;;;;5069808;28;20234;-49
2021/04/03 04:41:52;;;;;;;9.07;5.95;;;4.80;99.90;;;;;;5096950;22;20227;-48
2021/04/03 04:44:19;;;;;;;9.57;6.13;;;4.90;99.90;;;;;;5070810;28;20253;-47
2021/04/03 04:46:47;;;;;;;11.70;6.88;;;4.90;99.90;;;;;;5071237;28;20207;-47
2021/04/03 04:49:15;;;;;;;9.15;5.90;;;5.10;99.90;;;;;;5072576;28;20187;-47
2021/04/03 04:51:45;;;;;;;12.25;7.10;;;5.00;99.90;;;;;;5071421;28;20215;-47
2021/04/03 04:54:20;;;;;;;10.40;5.75;;;4.90;99.90;;;;;;5071062;28;20210;-47
2021/04/03 04:56:49;;;;;;;11.27;6.35;;;4.90;99.90;;;;;;5071198;28;20226;-47
2021/04/03 04:59:22;;;;;;;8.77;5.63;;;5.10;99.90;;;;;;5070898;28;20219;-47
2021/04/03 05:01:57;;;;;;;7.57;5.78;;;4.90;99.90;;;;;;5071367;28;20592;-47
2021/04/03 05:04:24;;;;;;;10.77;5.80;;;4.90;99.90;;;;;;5071346;28;20667;-47
2021/04/03 05:06:51;;;;;;;13.02;7.40;;;5.00;99.90;;;;;;5073708;28;20199;-47
2021/04/03 05:09:18;;;;;;;10.57;5.70;;;5.10;99.90;;;;;;5072138;28;20275;-48
2021/04/03 05:11:44;;;;;;;10.25;5.88;;;5.20;99.90;;;;;;5072178;28;20296;-47
2021/04/03 05:14:10;;;;;;;7.95;5.80;;;5.10;99.90;;;;;;5072153;28;20198;-47
2021/04/03 05:16:37;;;;;;;8.93;5.90;;;5.20;99.90;;;;;;5072546;28;20196;-48
2021/04/03 05:19:03;;;;;;;11.20;6.25;;;4.90;99.90;;;;;;5071899;28;20572;-48
2021/04/03 05:21:30;;;;;;;11.05;6.53;;;5.00;99.90;;;;;;5072035;28;20588;-48
2021/04/03 05:23:57;;;;;;;9.60;6.70;;;5.20;99.90;;;;;;5071791;28;20195;-48
2021/04/03 05:26:23;;;;;;;8.70;6.38;;;5.00;99.90;;;;;;5071943;28;20225;-48
2021/04/03 05:28:49;;;;;;;7.28;5.68;;;5.30;99.90;;;;;;5071903;28;20195;-47
2021/04/03 05:31:20;;;;;;;13.25;6.15;;;5.00;99.90;;;;;;5071578;28;20211;-48
2021/04/03 05:33:46;;;;;;;15.25;6.13;;;5.20;99.90;;;;;;5071390;28;20197;-47
2021/04/03 05:36:12;;;;;;;11.05;7.13;;;5.00;99.90;;;;;;5071866;28;20278;-48
2021/04/03 05:38:39;;;;;;;14.38;6.68;;;5.20;99.90;;;;;;5071878;28;20218;-48
2021/04/03 05:41:06;;;;;;;14.10;6.60;;;5.30;99.90;;;;;;5073113;28;20636;-48
2021/04/03 05:43:34;;;;;;;11.88;6.15;;;5.20;99.90;;;;;;5071746;28;20651;-48
2021/04/03 05:46:02;;;;;;;12.10;6.35;;;5.60;99.90;;;;;;5071651;28;20192;-48
2021/04/03 05:48:28;;;;;;;8.05;5.90;;;5.60;99.90;;;;;;5071623;28;20222;-47
2021/04/03 05:50:56;;;;;;;10.18;6.45;;;5.50;99.90;;;;;;5071813;28;20219;-47
2021/04/03 05:53:23;;;;;;;10.15;6.55;;;5.50;99.90;;;;;;5071353;28;20605;-48
2021/04/03 05:55:52;;;;;;;8.65;5.05;;;5.60;99.90;;;;;;5072101;28;20544;-48
2021/04/03 05:58:19;;;;;;;10.82;5.40;;;5.50;99.90;;;;;;5071754;28;20294;-48
2021/04/03 06:00:45;;;;;;;8.27;5.10;;;5.80;99.90;;;;;;5071717;28;20265;-47
2021/04/03 06:03:14;;;;;;;5.57;4.50;;;5.90;99.90;;;;;;5071294;28;20505;-47
2021/04/03 06:05:40;;;;;;;13.10;5.47;;;5.80;99.90;;;;;;5071640;28;20192;-47
2021/04/03 06:08:06;;;;;;;11.60;5.50;;;6.20;99.90;;;;;;5070443;28;20617;-47
2021/04/03 06:10:33;;;;;;;8.93;4.75;;;6.00;99.90;;;;;;5071385;28;20215;-46
2021/04/03 06:12:59;;;;;;;8.27;4.50;;;5.90;99.90;;;;;;5071295;28;20198;-46
2021/04/03 06:15:36;;;;;;;5.40;2.83;;;6.20;99.90;;;;;;5071581;28;20495;-46
2021/04/03 06:18:09;;;;;;;7.22;4.13;;;6.00;99.90;;;;;;5071621;28;20206;-47
2021/04/03 06:20:36;;;;;;;5.60;3.47;;;6.10;99.90;;;;;;5071519;28;20230;-46
2021/04/03 06:23:04;;;;;;;9.35;5.28;;;6.20;99.90;;;;;;5071192;28;20437;-47
2021/04/03 06:25:31;;;;;;;8.63;4.05;;;5.90;99.90;;;;;;5071198;28;20675;-47
2021/04/03 06:28:06;;;;;;;10.63;4.73;;;6.20;99.90;;;;;;5071212;28;20691;-47
2021/04/03 06:30:34;;;;;;;7.78;4.40;;;6.10;99.90;;;;;;5069923;28;20500;-47
2021/04/03 06:33:15;;;;;;;6.27;4.70;;;6.20;99.90;;;;;;5071192;28;20227;-47
2021/04/03 06:35:42;;;;;;;6.85;4.55;;;6.40;99.90;;;;;;5071226;28;20449;-46
2021/04/03 06:38:19;;;;;;;6.38;3.30;;;5.70;99.90;;;;;;5071345;28;20206;-46
2021/04/03 06:40:45;;;;;;;7.88;4.13;;;6.30;99.90;;;;;;5070934;28;20218;-47
2021/04/03 06:43:15;;;;;;;6.32;4.28;;;6.70;99.90;;;;;;5070976;28;20560;-46
2021/04/03 06:45:44;;;;;;;6.60;4.13;;;6.10;99.90;;;;;;5071046;28;20196;-46
2021/04/03 06:48:12;;;;;;;5.50;3.73;;;6.50;99.90;;;;;;5071093;28;20655;-46
2021/04/03 06:50:40;;;;;;;5.55;3.53;;;6.60;99.90;;;;;;5070851;28;20884;-46
2021/04/03 06:53:09;;;;;;;5.10;3.20;;;6.00;99.90;;;;;;5071744;28;20188;-46
2021/04/03 06:55:36;;;;;;;9.40;2.88;;;5.90;99.90;;;;;;5075073;28;20605;-45
2021/04/03 06:58:04;;;;;;;7.47;2.90;;;6.70;99.90;;;;;;5074667;28;20690;-47
2021/04/03 07:00:32;;;;;;;5.47;3.25;;;6.40;99.90;;;;;;5074675;28;20449;-47
2021/04/03 07:03:01;;;;;;;7.87;4.77;;;6.20;99.90;;;;;;5074406;28;20206;-46
2021/04/03 07:05:31;;;;;;;11.27;3.70;;;6.90;99.90;;;;;;5075196;28;20479;-47
2021/04/03 07:08:00;;;;;;;5.30;3.95;;;6.90;99.90;;;;;;5075011;28;20441;-47
2021/04/03 07:10:28;;;;;;;4.73;2.70;;;6.80;99.90;;;;;;5074412;28;20684;-47
2021/04/03 07:12:55;;;;;;;6.45;3.00;;;6.90;99.90;;;;;;5074510;28;20455;-47
2021/04/03 07:15:22;;;;;;;4.40;2.50;;;6.80;99.90;;;;;;5074271;28;20691;-46
2021/04/03 07:17:50;;;;;;;3.80;2.53;;;7.10;99.90;;;;;;5074036;28;20200;-46
2021/04/03 07:20:17;;;;;;;4.28;2.60;;;7.20;99.90;;;;;;5074647;28;20490;-47
2021/04/03 07:22:46;;;;;;;2.83;1.90;;;7.10;99.90;;;;;;5074368;28;20278;-47
2021/04/03 07:25:14;;;;;;;2.78;1.80;;;7.00;99.90;;;;;;5073975;28;20487;-46
2021/04/03 07:27:42;;;;;;;8.23;2.20;;;6.80;99.90;;;;;;5074048;28;20211;-47
2021/04/03 07:30:09;;;;;;;4.67;1.73;;;7.20;99.90;;;;;;5073989;28;20454;-45
2021/04/03 07:32:39;;;;;;;2.50;1.60;;;7.20;98.80;;;;;;5072389;28;20876;-46
2021/04/03 07:35:20;;;;;;;3.50;2.40;;;7.20;98.30;;;;;;5074578;28;20528;-46
2021/04/03 07:37:47;;;;;;;7.40;1.97;;;7.20;99.10;;;;;;5074363;28;20987;-48
2021/04/03 07:40:35;;;;;;;3.93;2.30;;;7.40;98.80;;;;;;5074229;28;20493;-46
2021/04/03 07:43:02;;;;;;;2.70;1.40;;;7.30;98.90;;;;;;5074077;28;20434;-46
2021/04/03 07:45:46;;;;;;;4.30;2.47;;;7.20;97.50;;;;;;5073974;28;20484;-48
2021/04/03 07:48:27;;;;;;;3.20;1.50;;;7.50;97.40;;;;;;5073766;28;20431;-48
2021/04/03 07:50:53;;;;;;;2.53;1.10;;;7.50;97.20;;;;;;5074333;28;20470;-46
2021/04/03 07:53:36;;;;;;;1.97;1.20;;;7.30;95.90;;;;;;5074198;28;20435;-47
2021/04/03 07:56:05;;;;;;;2.70;1.07;;;7.60;95.50;;;;;;5074463;28;20540;-48
2021/04/03 07:58:32;;;;;;;2.93;1.30;;;7.40;95.10;;;;;;5073616;28;20467;-46
2021/04/03 08:01:00;;;;;;;2.57;1.67;;;7.60;95.20;;;;;;5073682;28;20451;-46
2021/04/03 08:03:28;;;;;;;3.83;1.50;;;7.70;94.00;;;;;;5073383;28;20502;-46
2021/04/03 08:06:00;;;;;;;3.20;1.30;;;7.50;94.20;;;;;;5073528;28;20434;-47
2021/04/03 08:08:27;;;;;;;5.13;1.57;;;7.60;92.90;;;;;;5073506;28;20441;-47
2021/04/03 08:11:11;;;;;;;4.80;1.80;;;7.50;92.20;;;;;;5073369;28;20506;-47
2021/04/03 08:13:39;;;;;;;5.53;1.87;;;7.90;92.30;;;;;;5070043;28;20539;-46
2021/04/03 08:16:07;;;;;;;2.90;1.30;;;7.40;91.90;;;;;;5073288;28;20499;-47
2021/04/03 08:18:35;;;;;;;4.20;1.80;;;7.60;91.90;;;;;;5073083;28;20467;-46
2021/04/03 08:21:02;;;;;;;7.03;2.47;;;7.60;91.90;;;;;;5073590;28;20446;-46
2021/04/03 08:23:36;;;;;;;4.20;1.83;;;7.90;92.00;;;;;;5072557;28;20444;-47
2021/04/03 08:26:04;;;;;;;7.30;2.00;;;8.10;92.20;;;;;;5073134;28;20430;-46
2021/04/03 08:28:32;;;;;;;5.20;1.73;;;7.90;91.30;;;;;;5072752;28;20462;-46
2021/04/03 08:30:59;;;;;;;4.00;1.70;;;8.00;91.00;;;;;;5072757;28;20471;-47
2021/04/03 08:33:31;;;;;;;2.30;1.57;;;8.00;90.60;;;;;;5072575;28;20435;-47
2021/04/03 08:35:57;;;;;;;3.80;1.73;;;8.20;90.50;;;;;;5072626;28;20402;-46
2021/04/03 08:38:25;;;;;;;2.53;1.57;;;8.30;90.10;;;;;;5072785;28;20481;-46
2021/04/03 08:40:55;;;;;;;2.90;1.60;;;8.40;89.70;;;;;;5072797;28;20460;-46
2021/04/03 08:43:27;;;;;;;2.67;1.30;;;8.00;89.30;;;;;;5072582;28;20459;-47
2021/04/03 08:46:01;;;;;;;5.83;2.20;;;8.60;90.80;;;;;;5073330;28;20447;-48
2021/04/03 08:48:31;;;;;;;3.07;1.30;;;8.40;90.50;;;;;;5073010;28;20501;-47
2021/04/03 08:50:59;;;;;;;1.93;1.10;;;8.70;90.30;;;;;;5073452;28;20795;-46
2021/04/03 08:53:25;;;;;;;4.23;1.57;;;9.00;90.70;;;;;;5071755;28;20485;-47
2021/04/03 08:55:51;;;;;;;2.50;1.33;;;8.60;90.20;;;;;;5071447;28;20460;-47
2021/04/03 08:58:20;;;;;;;3.20;1.50;;;8.70;90.30;;;;;;5072533;28;20524;-47
2021/04/03 09:00:46;;;;;;;3.10;1.60;;;8.60;89.80;;;;;;5071429;28;20991;-47
2021/04/03 09:03:13;;;;;;;4.93;1.77;;;8.60;89.80;;;;;;5072853;28;20440;-46
2021/04/03 09:05:47;;;;;;;1.80;1.27;;;8.50;90.10;;;;;;5072813;28;20526;-47
2021/04/03 09:08:20;;;;;;;3.60;1.10;;;8.70;90.20;;;;;;5073786;28;20428;-47
2021/04/03 09:10:52;;;;;;;2.80;1.10;;;9.10;90.30;;;;;;5074150;28;20459;-47
2021/04/03 09:13:20;;;;;;;2.20;1.23;;;8.60;89.50;;;;;;5074395;28;20800;-46
2021/04/03 09:15:47;;;;;;;2.27;1.17;;;8.70;88.00;;;;;;5072482;28;20438;-47
2021/04/03 09:18:15;;;;;;;4.47;1.30;;;9.10;88.20;;;;;;5074586;28;20441;-46
2021/04/03 09:20:47;;;;;;;3.20;1.20;;;8.70;88.50;;;;;;5074317;28;20452;-47
2021/04/03 09:23:14;;;;;;;4.87;1.37;;;9.10;88.40;;;;;;5072777;28;21012;-47
2021/04/03 09:25:40;;;;;;;4.10;1.30;;;8.70;87.80;;;;;;5072240;28;20431;-47
2021/04/03 09:28:10;;;;;;;2.57;0.90;;;9.10;87.60;;;;;;5071979;28;20436;-46
2021/04/03 09:30:38;;;;;;;1.87;1.20;;;9.10;87.00;;;;;;5071820;28;20941;-48
2021/04/03 09:33:21;;;;;;;4.17;1.20;;;9.00;86.30;;;;;;5071394;28;20527;-47
2021/04/03 09:35:48;;;;;;;2.93;1.37;;;9.20;87.30;;;;;;5072037;28;20443;-47
2021/04/03 09:38:17;;;;;;;3.17;1.40;;;9.60;87.10;;;;;;5071704;28;20433;-47
2021/04/03 09:40:45;;;;;;;2.20;1.23;;;9.50;87.10;;;;;;5072293;28;20977;-46
2021/04/03 09:43:12;;;;;;;5.43;1.23;;;9.30;85.30;;;;;;5072741;28;20437;-46
2021/04/03 09:45:39;;;;;;;3.17;1.33;;;8.90;84.40;;;;;;5072599;28;20430;-47
2021/04/03 09:48:08;;;;;;;2.23;1.10;;;9.20;83.20;;;;;;5072589;28;20456;-46
2021/04/03 09:50:35;;;;;;;1.53;1.10;;;9.40;84.10;;;;;;5071880;28;20452;-47
2021/04/03 09:53:07;;;;;;;3.53;1.20;;;9.30;83.60;;;;;;5071896;28;20929;-47
2021/04/03 09:55:34;;;;;;;2.90;0.93;;;9.30;83.30;;;;;;5072236;28;20441;-47
2021/04/03 09:58:00;;;;;;;1.30;0.87;;;9.50;80.50;;;;;;5071143;28;20536;-47
2021/04/03 10:00:27;;;;;;;3.07;1.20;;;9.00;77.30;;;;;;5072875;28;20891;-46
2021/04/03 10:02:53;;;;;;;1.93;1.10;;;9.80;79.40;;;;;;5072119;28;20433;-46
2021/04/03 10:05:20;;;;;;;5.57;1.60;;;9.70;79.60;;;;;;5072293;28;20934;-47
2021/04/03 10:07:47;;;;;;;3.53;1.20;;;9.70;79.20;;;;;;5072853;28;20778;-48
2021/04/03 10:10:13;;;;;;;2.50;1.20;;;9.70;79.40;;;;;;5071730;28;20526;-47
2021/04/03 10:12:39;;;;;;;2.50;1.93;;;10.20;77.30;;;;;;5071200;28;20422;-47
2021/04/03 10:15:07;;;;;;;1.83;1.07;;;9.90;77.80;;;;;;5070880;28;20472;-46
2021/04/03 10:17:33;;;;;;;2.63;1.10;;;9.50;77.90;;;;;;5071273;28;20442;-46
2021/04/03 10:20:00;;;;;;;2.07;1.37;;;9.50;77.90;;;;;;5069727;28;20557;-47
2021/04/03 10:22:26;;;;;;;1.70;1.00;;;9.50;78.30;;;;;;5071513;28;20461;-46
2021/04/03 10:24:54;;;;;;;1.90;1.20;;;9.40;79.30;;;;;;5071437;28;20466;-46
2021/04/03 10:27:20;;;;;;;2.80;1.23;;;9.60;80.40;;;;;;5073018;28;20468;-47
2021/04/03 10:29:47;;;;;;;3.43;1.20;;;9.60;79.60;;;;;;5076340;28;20894;-47
2021/04/03 10:32:13;;;;;;;2.90;1.07;;;9.50;79.20;;;;;;5076881;28;20498;-47
2021/04/03 10:34:39;;;;;;;3.17;1.03;;;9.60;76.60;;;;;;5076413;28;20840;-46
2021/04/03 10:37:06;;;;;;;3.17;1.47;;;9.50;75.60;;;;;;5077369;28;20443;-47
2021/04/03 10:39:32;;;;;;;1.90;0.90;;;10.00;72.90;;;;;;5077140;28;20477;-47
2021/04/03 10:41:59;;;;;;;2.43;1.20;;;10.10;72.40;;;;;;5075789;28;20457;-47
2021/04/03 10:44:26;;;;;;;1.67;0.90;;;10.10;70.70;;;;;;5074454;28;20437;-49
2021/04/03 10:46:53;;;;;;;2.63;1.10;;;10.20;68.70;;;;;;5074306;28;20469;-49
2021/04/03 10:49:20;;;;;;;2.50;1.07;;;10.30;69.40;;;;;;5074054;28;20888;-48
2021/04/03 10:51:46;;;;;;;4.47;1.80;;;10.20;68.70;;;;;;5074788;28;20446;-47
2021/04/03 10:54:13;;;;;;;3.70;1.10;;;10.10;64.60;;;;;;5074202;28;20429;-48
2021/04/03 10:56:39;;;;;;;3.30;1.13;;;10.10;64.80;;;;;;5074558;28;20483;-48
2021/04/03 10:59:06;;;;;;;2.50;1.27;;;10.10;64.60;;;;;;5073125;28;20922;-48
2021/04/03 11:01:32;;;;;;;2.83;1.00;;;10.20;61.30;;;;;;5074546;28;20459;-48
2021/04/03 11:04:01;;;;;;;2.20;1.30;;;10.70;61.30;;;;;;5075160;28;20498;-47
2021/04/03 11:06:27;;;;;;;4.73;1.07;;;10.30;61.50;;;;;;5074004;28;20441;-47
2021/04/03 11:08:53;;;;;;;2.17;0.97;;;9.90;63.00;;;;;;5073724;28;20520;-47
2021/04/03 11:11:20;;;;;;;1.80;1.00;;;10.10;63.90;;;;;;5073955;28;20459;-48
2021/04/03 11:13:46;;;;;;;2.23;1.13;;;9.60;66.40;;;;;;5074334;28;20441;-47
2021/04/03 11:16:13;;;;;;;2.67;0.97;;;10.20;68.30;;;;;;5074342;28;20468;-47
2021/04/03 11:18:40;;;;;;;3.23;1.03;;;9.80;69.90;;;;;;5073387;28;20938;-47
2021/04/03 11:21:06;;;;;;;3.20;1.23;;;9.70;70.80;;;;;;5073316;28;20452;-48
2021/04/03 11:23:32;;;;;;;2.10;1.20;;;9.70;71.90;;;;;;5073064;28;20434;-47
2021/04/03 11:25:59;;;;;;;3.13;1.00;;;9.60;72.70;;;;;;5073705;28;20491;-49
2021/04/03 11:28:25;;;;;;;3.10;1.20;;;9.80;73.00;;;;;;5073526;28;20488;-48
2021/04/03 11:30:51;;;;;;;3.10;1.10;;;9.60;71.80;;;;;;5073325;28;20529;-48
2021/04/03 11:33:19;;;;;;;1.57;0.77;;;9.70;71.50;;;;;;5073040;28;20434;-48
2021/04/03 11:35:46;;;;;;;3.60;1.57;;;9.70;70.70;;;;;;5073205;28;20426;-48
2021/04/03 11:38:12;;;;;;;3.10;1.30;;;10.00;68.70;;;;;;5073518;28;20434;-49
2021/04/03 11:40:39;;;;;;;3.13;2.37;;;9.70;69.70;;;;;;5073075;28;20496;-48
2021/04/03 11:43:05;;;;;;;5.27;2.53;;;9.90;70.20;;;;;;5073113;28;20430;-48
2021/04/03 11:45:31;;;;;;;2.60;1.10;;;10.00;69.20;;;;;;5073298;28;20555;-48
2021/04/03 11:47:58;;;;;;;5.63;1.43;;;9.80;69.70;;;;;;5073473;28;20448;-49
2021/04/03 11:50:26;;;;;;;2.40;1.13;;;9.70;70.60;;;;;;5073305;28;20469;-48
2021/04/03 11:52:54;;;;;;;3.17;1.20;;;9.50;70.30;;;;;;5071651;28;20450;-47
2021/04/03 11:55:21;;;;;;;2.10;1.43;;;10.20;69.20;;;;;;5072972;28;20471;-47
2021/04/03 11:57:48;;;;;;;4.53;1.20;;;10.30;69.00;;;;;;5072899;28;20441;-49
2021/04/03 12:00:15;;;;;;;2.17;1.23;;;10.40;68.80;;;;;;5073028;28;20568;-48
2021/04/03 12:02:42;;;;;;;1.97;0.97;;;10.60;69.50;;;;;;5073175;28;20481;-48
2021/04/03 12:05:09;;;;;;;3.17;1.00;;;9.90;68.10;;;;;;5072277;28;20527;-48
2021/04/03 12:07:37;;;;;;;3.00;0.90;;;10.20;67.30;;;;;;5073351;28;20437;-49
2021/04/03 12:10:04;;;;;;;1.77;1.10;;;10.50;65.00;;;;;;5073235;28;20426;-47
2021/04/03 12:12:31;;;;;;;2.10;0.97;;;10.20;60.50;;;;;;5073288;28;20534;-49
2021/04/03 12:14:57;;;;;;;2.53;1.10;;;10.60;58.20;;;;;;5073756;28;20765;-48
2021/04/03 12:17:24;;;;;;;2.67;1.10;;;10.20;58.80;;;;;;5071864;28;20842;-49
2021/04/03 12:19:50;;;;;;;2.17;1.00;;;10.30;58.80;;;;;;5073168;28;20849;-48
2021/04/03 12:22:16;;;;;;;1.67;0.90;;;10.30;59.60;;;;;;5072853;28;20504;-49
2021/04/03 12:24:44;;;;;;;1.83;0.90;;;10.40;59.50;;;;;;5073058;28;20465;-48
2021/04/03 12:27:10;;;;;;;2.03;1.10;;;10.40;60.20;;;;;;5072969;28;20934;-48
2021/04/03 12:29:36;;;;;;;1.57;0.90;;;10.50;56.30;;;;;;5073137;28;20821;-49
2021/04/03 12:32:03;;;;;;;1.53;1.17;;;9.80;53.70;;;;;;5072923;28;20957;-47
2021/04/03 12:34:29;;;;;;;1.90;1.00;;;10.50;52.50;;;;;;5071256;28;20567;-47
2021/04/03 12:36:56;;;;;;;1.87;0.87;;;10.50;52.20;;;;;;5072764;28;20457;-48
2021/04/03 12:39:22;;;;;;;2.00;1.67;;;10.60;52.70;;;;;;5072944;28;20568;-48
2021/04/03 12:41:49;;;;;;;3.20;0.93;;;10.60;52.90;;;;;;5072838;28;20465;-48
2021/04/03 12:44:16;;;;;;;3.60;1.50;;;10.40;52.50;;;;;;5072499;28;20444;-48
2021/04/03 12:46:42;;;;;;;2.30;1.20;;;10.30;52.40;;;;;;5072570;28;20820;-48
2021/04/03 12:49:08;;;;;;;1.63;0.93;;;9.90;53.20;;;;;;5072661;28;20433;-49
2021/04/03 12:51:37;;;;;;;2.03;0.87;;;10.40;53.40;;;;;;5071200;28;20548;-48
2021/04/03 12:54:03;;;;;;;1.33;0.80;;;10.10;54.00;;;;;;5071969;28;20988;-49
2021/04/03 12:56:30;;;;;;;2.07;1.27;;;9.70;55.40;;;;;;5072334;28;20437;-49
2021/04/03 12:58:57;;;;;;;3.20;1.23;;;10.40;55.30;;;;;;5072403;28;20564;-49
2021/04/03 13:01:24;;;;;;;2.13;1.00;;;10.30;55.70;;;;;;5071801;28;20792;-49